Stations météo

Publicité
Beg Melen, France (7203): Température de l'air & dewpoint: 16.07.2019 18:00:00 - 22.07.2019 18:00:00 (CEST)Beg Melen, France (7203): Vitesse du vent & gusts: 16.07.2019 18:00:00 - 22.07.2019 18:00:00 (CEST)Beg Melen, France (7203): Direction du vent: 16.07.2019 18:00:00 - 22.07.2019 18:00:00 (CEST)Beg Melen, France (7203): visibility: 16.07.2019 18:00:00 - 22.07.2019 18:00:00 (CEST)Beg Melen, France (7203): Quantités de précipitations: 16.07.2019 18:00:00 - 22.07.2019 18:00:00 (CEST)
Date & Time tt [°C] td [°C] ff [km/h] ff [knt] fx [km/h] fx [knt] dd vv [km] rr [mm]
22.07.2019 18:00:00 23,5 17,5 13 7 19 10 W - 0,0
22.07.2019 17:00:00 23,3 17,1 14 8 27 14 W 30 0,0
22.07.2019 16:00:00 22,7 16,7 16 9 24 13 W - 0,0
22.07.2019 15:00:00 23,1 16,6 12 7 23 12 W - 0,0
22.07.2019 14:00:00 23,1 16,2 10 5 18 10 W 30 0,0
22.07.2019 13:00:00 22,9 16,9 8 5 11 6 W - 0,0
22.07.2019 12:00:00 22,0 16,3 4 2 10 5 WNW - 0,0
22.07.2019 11:00:00 20,5 16,5 5 3 12 6 NNE 18 0,0
22.07.2019 10:00:00 18,4 15,8 6 4 13 7 NE - 0,0
22.07.2019 09:00:00 16,5 15,5 11 6 20 11 NE - 0,0
22.07.2019 08:00:00 17,1 16,3 10 5 17 9 ENE 10 0,0
22.07.2019 07:00:00 16,9 16,1 6 3 11 6 ENE - 0,0
22.07.2019 06:00:00 16,6 15,8 7 4 10 5 NE - 0,0
22.07.2019 05:00:00 16,6 15,6 5 3 10 5 E 25 0,0
22.07.2019 04:00:00 17,2 15,7 7 4 18 10 ENE - 0,0
22.07.2019 03:00:00 18,4 16,7 13 7 24 13 NW - 0,0
22.07.2019 02:00:00 18,7 16,5 19 10 22 12 W 25 0,0
22.07.2019 01:00:00 18,7 16,5 13 7 22 12 W - 0,0
22.07.2019 00:00:00 18,8 16,2 12 6 19 10 W - 0,0
21.07.2019 23:00:00 18,9 16,1 10 5 16 8 W 25 0,0
21.07.2019 22:00:00 19,2 15,9 11 6 20 11 WSW - 0,0
21.07.2019 21:00:00 20,4 16,0 12 6 21 12 W - 0,0
21.07.2019 20:00:00 21,9 16,2 11 6 21 11 W 25 0,0
21.07.2019 19:00:00 21,8 16,3 11 6 22 12 W - 0,0
21.07.2019 18:00:00 22,8 16,3 14 8 23 12 W - 0,0
21.07.2019 17:00:00 22,6 16,6 13 7 24 13 W 25 0,0
21.07.2019 16:00:00 22,7 16,9 14 7 26 14 WSW - 0,0
21.07.2019 15:00:00 22,9 16,7 14 7 26 14 W - 0,0
21.07.2019 14:00:00 22,5 17,0 8 4 22 12 WSW 30 0,0
21.07.2019 13:00:00 21,8 17,0 9 5 20 11 WSW - 0,0
21.07.2019 12:00:00 21,5 17,1 9 5 20 11 SSW - 0,0
21.07.2019 11:00:00 21,2 17,4 7 4 15 8 SSE 30 0,0
21.07.2019 10:00:00 18,8 17,5 6 3 13 7 ESE - 0,0
21.07.2019 09:00:00 18,0 17,4 7 4 11 6 ESE - 0,0
21.07.2019 08:00:00 17,4 16,9 6 3 10 5 ESE 12 0,0
21.07.2019 07:00:00 16,8 16,2 5 3 6 4 E - 0,0
21.07.2019 06:00:00 16,8 16,0 3 2 6 3 ENE - 0,0
21.07.2019 05:00:00 16,7 15,6 3 2 13 7 W 20 0,0
21.07.2019 04:00:00 17,5 16,2 10 5 21 11 WNW - 0,0
21.07.2019 03:00:00 18,0 16,5 15 8 19 10 WNW - 0,0
21.07.2019 02:00:00 17,2 15,5 9 5 15 8 WSW 20 0,0
21.07.2019 01:00:00 17,8 16,1 12 6 23 13 W - 0,0
21.07.2019 00:00:00 18,0 16,0 19 10 30 16 WNW - 0,0
20.07.2019 23:00:00 18,3 16,5 21 11 29 16 WNW 18 0,0
20.07.2019 22:00:00 18,7 16,5 19 10 35 19 W - 0,0
20.07.2019 21:00:00 19,5 16,5 18 10 39 21 W - 0,0
20.07.2019 20:00:00 20,0 16,4 26 14 48 26 W 18 0,0
20.07.2019 19:00:00 20,2 16,4 24 13 43 23 W - 0,0
20.07.2019 18:00:00 20,6 16,6 22 12 49 26 W - 0,0
20.07.2019 17:00:00 20,6 16,6 28 15 51 28 W 20 0,0
20.07.2019 16:00:00 20,5 16,5 32 17 46 25 W - 0,0
20.07.2019 15:00:00 20,3 16,1 27 14 46 25 W - 0,0
20.07.2019 14:00:00 19,3 15,8 24 13 44 24 W 20 0,0
20.07.2019 13:00:00 19,3 16,0 27 15 38 21 W - 0,0
20.07.2019 12:00:00 19,2 16,1 29 16 39 21 W - 0,0
20.07.2019 11:00:00 19,0 16,4 22 12 34 18 W 20 0,0
20.07.2019 10:00:00 18,9 17,0 22 12 36 19 WNW - 0,0
20.07.2019 09:00:00 19,0 17,3 29 16 46 25 W - 0,0
20.07.2019 08:00:00 19,0 17,7 25 14 54 29 WSW 12 0,0
20.07.2019 07:00:00 18,9 18,2 36 20 58 31 WSW - 2,2
20.07.2019 06:00:00 19,1 17,9 32 17 55 30 WSW - 3,5
20.07.2019 05:00:00 19,4 17,9 24 13 43 23 WSW 20 0,0
20.07.2019 04:00:00 19,2 17,7 25 13 45 25 WSW - 0,0
20.07.2019 03:00:00 19,2 17,9 25 14 41 22 SW - 0,0
20.07.2019 02:00:00 19,2 17,5 27 15 44 24 SW 20 0,0
20.07.2019 01:00:00 18,7 17,4 27 14 37 20 SSW - 0,0
20.07.2019 00:00:00 19,1 17,2 24 13 34 18 SSW - 0,0
19.07.2019 23:00:00 19,2 17,3 21 12 31 17 SSW 20 0,0
19.07.2019 22:00:00 19,1 17,1 22 12 31 17 SSW - 0,0
19.07.2019 21:00:00 19,4 17,2 20 11 33 18 SW - 0,0
19.07.2019 20:00:00 19,6 16,8 21 11 39 21 SW 20 0,0
19.07.2019 19:00:00 20,1 16,9 23 13 35 19 SW - 0,0
19.07.2019 18:00:00 20,8 17,6 22 12 35 19 SSW - 0,0
19.07.2019 17:00:00 20,8 17,6 23 12 36 19 SSW 18 0,0
19.07.2019 16:00:00 20,7 17,5 25 13 36 20 SW - 0,0
19.07.2019 15:00:00 20,5 17,5 24 13 41 22 SSW - 0,0
19.07.2019 14:00:00 20,2 17,6 24 13 41 22 SSW 15 0,0
19.07.2019 13:00:00 19,4 17,2 23 12 39 21 SW - 0,0
19.07.2019 12:00:00 19,7 16,3 26 14 37 20 SSW - 0,0
19.07.2019 11:00:00 20,4 16,0 26 14 39 21 SW 20 0,0
19.07.2019 10:00:00 19,9 15,9 22 12 36 20 SW - 0,0
19.07.2019 09:00:00 19,1 15,6 24 13 36 19 SW - 0,0
19.07.2019 08:00:00 18,6 15,5 21 12 36 19 SW 25 0,0
19.07.2019 07:00:00 18,4 15,8 18 10 33 18 SW - 0,0
19.07.2019 06:00:00 17,9 14,6 25 14 36 20 WSW - 0,0
19.07.2019 05:00:00 17,7 14,8 22 12 31 17 SW 25 0,0
19.07.2019 04:00:00 17,9 14,0 18 10 32 17 WSW - 0,0
19.07.2019 03:00:00 17,2 14,3 12 6 19 10 WSW - 0,0
19.07.2019 02:00:00 17,1 14,6 13 7 30 16 WNW 25 0,0
19.07.2019 01:00:00 17,3 14,2 21 12 34 19 WNW - 0,0
19.07.2019 00:00:00 17,4 13,7 28 15 40 21 WNW - 0,0
18.07.2019 23:00:00 17,7 13,8 33 18 46 25 WNW 30 0,0
18.07.2019 22:00:00 17,8 13,7 37 20 46 25 W - 0,0
18.07.2019 21:00:00 18,4 13,5 35 19 52 28 W - 0,0
18.07.2019 20:00:00 19,2 14,2 25 13 45 25 W 30 0,0
18.07.2019 19:00:00 20,0 15,2 27 15 51 28 W - 0,0
18.07.2019 18:00:00 20,2 14,3 32 18 54 29 W - 0,0
18.07.2019 17:00:00 20,8 15,8 23 12 42 23 W 30 0,0
18.07.2019 16:00:00 20,9 16,3 21 11 39 21 W - 0,0
18.07.2019 15:00:00 20,1 16,9 21 11 44 24 W - 0,0
18.07.2019 14:00:00 19,4 16,6 20 11 37 20 W 30 0,0
18.07.2019 13:00:00 19,8 17,0 18 10 30 16 W - 0,0
18.07.2019 12:00:00 18,3 17,3 14 8 35 19 W - 0,4
18.07.2019 11:00:00 18,0 17,0 21 12 43 23 W 7 1,0
18.07.2019 10:00:00 18,6 17,8 28 15 47 26 WSW - 0,8
18.07.2019 09:00:00 18,4 17,4 29 16 50 27 W - 0,2
18.07.2019 08:00:00 19,1 16,5 29 15 44 24 WSW 20 0,0
18.07.2019 07:00:00 18,8 16,4 21 11 38 21 WSW - 0,0
18.07.2019 06:00:00 18,6 15,7 21 12 40 22 W - 0,0
18.07.2019 05:00:00 18,6 15,8 21 11 41 22 WSW 25 0,0
18.07.2019 04:00:00 18,4 14,7 20 11 39 21 W - 0,0
18.07.2019 03:00:00 17,9 14,2 19 10 40 22 W - 0,0
18.07.2019 02:00:00 17,8 14,5 29 16 44 24 W 25 0,0
18.07.2019 01:00:00 17,9 14,4 29 16 48 26 WNW - 0,0
18.07.2019 00:00:00 17,8 14,7 30 16 52 28 WNW - 0,0
17.07.2019 23:00:00 17,9 14,2 40 21 53 29 WNW 20 0,0
17.07.2019 22:00:00 18,1 14,0 42 23 55 30 WNW - 0,0
17.07.2019 21:00:00 18,9 14,8 45 25 60 33 WNW - 0,0
17.07.2019 20:00:00 19,3 15,0 49 26 65 35 W 30 0,0
17.07.2019 19:00:00 19,9 14,9 49 27 67 36 W - 0,0
17.07.2019 18:00:00 20,4 15,4 50 27 66 35 W - 0,0
17.07.2019 17:00:00 20,6 15,8 49 26 68 37 W 30 0,0
17.07.2019 16:00:00 20,5 15,7 38 20 61 33 W - 0,0
17.07.2019 15:00:00 20,5 14,8 25 14 47 26 W - 0,0
17.07.2019 14:00:00 20,4 15,2 26 14 44 24 W 30 0,0
17.07.2019 13:00:00 20,1 14,9 23 12 39 21 W - 0,0
17.07.2019 12:00:00 20,1 14,5 22 12 32 18 W - 0,0
17.07.2019 11:00:00 19,1 13,9 14 8 25 13 NW 20 0,0
17.07.2019 10:00:00 17,8 13,9 15 8 23 12 NW - 0,0
17.07.2019 09:00:00 17,2 13,9 11 6 19 10 NW - 0,0
17.07.2019 08:00:00 16,1 13,9 6 3 12 6 NNW 18 0,0
17.07.2019 07:00:00 15,6 13,6 9 5 13 7 N - 0,0
17.07.2019 06:00:00 15,5 13,3 5 3 12 7 N - 0,0
17.07.2019 05:00:00 15,7 12,8 10 5 14 8 N 25 0,0
17.07.2019 04:00:00 16,9 14,4 5 3 19 11 NNW - 0,0
17.07.2019 03:00:00 17,8 14,5 9 5 18 10 NW - 0,0
17.07.2019 02:00:00 18,1 14,6 7 4 16 9 NNW 25 0,0
17.07.2019 01:00:00 18,7 14,6 7 4 23 12 NNW - 0,0
17.07.2019 00:00:00 19,3 16,3 17 9 30 16 NW - 0,0
16.07.2019 23:00:00 19,6 16,2 22 12 32 18 WNW 25 0,0
16.07.2019 22:00:00 19,5 16,3 25 13 33 18 WNW - 0,0
16.07.2019 21:00:00 20,5 16,9 22 12 29 15 W - 0,0
16.07.2019 20:00:00 21,4 17,0 22 12 31 17 W 20 0,0
16.07.2019 19:00:00 21,8 14,7 23 12 35 19 W - 0,0
16.07.2019 18:00:00 22,3 15,6 23 12 33 18 W - 0,0

tt = Température de l'air
td = dewpoint
ff = Vitesse du vent
fx = gusts
dd = Direction du vent
vv = visibility
rr = Quantités de précipitations

stations d'obs. à proximité